sensor_id;sensor_type;location;lat;lon;timestamp;temperature;humidity
4687;DHT22;2357;47.316;-1.348;2022-11-20T00:00:49;7.90;99.90
4687;DHT22;2357;47.316;-1.348;2022-11-20T00:03:15;7.90;99.90
4687;DHT22;2357;47.316;-1.348;2022-11-20T00:05:41;7.80;99.90
4687;DHT22;2357;47.316;-1.348;2022-11-20T00:08:06;7.90;99.90
4687;DHT22;2357;47.316;-1.348;2022-11-20T00:10:32;7.80;99.90
4687;DHT22;2357;47.316;-1.348;2022-11-20T00:13:01;7.10;99.90
4687;DHT22;2357;47.316;-1.348;2022-11-20T00:15:26;7.90;99.90
4687;DHT22;2357;47.316;-1.348;2022-11-20T00:17:52;7.70;99.90
4687;DHT22;2357;47.316;-1.348;2022-11-20T00:20:17;7.70;99.90
4687;DHT22;2357;47.316;-1.348;2022-11-20T00:22:43;7.70;99.90
4687;DHT22;2357;47.316;-1.348;2022-11-20T00:25:09;7.70;99.90
4687;DHT22;2357;47.316;-1.348;2022-11-20T00:27:34;7.70;99.90
4687;DHT22;2357;47.316;-1.348;2022-11-20T00:30:00;7.60;99.90
4687;DHT22;2357;47.316;-1.348;2022-11-20T00:32:25;7.70;99.90
4687;DHT22;2357;47.316;-1.348;2022-11-20T00:34:51;7.60;99.90
4687;DHT22;2357;47.316;-1.348;2022-11-20T00:37:17;7.70;99.90
4687;DHT22;2357;47.316;-1.348;2022-11-20T00:39:42;7.70;99.90
4687;DHT22;2357;47.316;-1.348;2022-11-20T00:42:08;7.80;99.90
4687;DHT22;2357;47.316;-1.348;2022-11-20T00:44:33;7.70;99.90
4687;DHT22;2357;47.316;-1.348;2022-11-20T00:46:59;7.80;99.90
4687;DHT22;2357;47.316;-1.348;2022-11-20T00:49:25;7.80;99.90
4687;DHT22;2357;47.316;-1.348;2022-11-20T00:51:50;7.70;99.90
4687;DHT22;2357;47.316;-1.348;2022-11-20T00:54:16;7.70;99.90
4687;DHT22;2357;47.316;-1.348;2022-11-20T00:56:41;7.80;99.90
4687;DHT22;2357;47.316;-1.348;2022-11-20T00:59:09;7.70;99.90
4687;DHT22;2357;47.316;-1.348;2022-11-20T01:01:36;7.70;99.90
4687;DHT22;2357;47.316;-1.348;2022-11-20T01:04:02;7.70;99.90
4687;DHT22;2357;47.316;-1.348;2022-11-20T01:06:30;7.70;99.90
4687;DHT22;2357;47.316;-1.348;2022-11-20T01:08:58;7.70;99.90
4687;DHT22;2357;47.316;-1.348;2022-11-20T01:11:30;7.70;99.90
4687;DHT22;2357;47.316;-1.348;2022-11-20T01:13:57;7.70;99.90
4687;DHT22;2357;47.316;-1.348;2022-11-20T01:16:34;7.70;99.90
4687;DHT22;2357;47.316;-1.348;2022-11-20T01:19:02;7.60;99.90
4687;DHT22;2357;47.316;-1.348;2022-11-20T01:21:34;7.70;99.90
4687;DHT22;2357;47.316;-1.348;2022-11-20T01:24:00;7.70;99.90
4687;DHT22;2357;47.316;-1.348;2022-11-20T01:26:28;7.60;99.90
4687;DHT22;2357;47.316;-1.348;2022-11-20T01:28:56;7.60;99.90
4687;DHT22;2357;47.316;-1.348;2022-11-20T01:31:27;7.70;99.90
4687;DHT22;2357;47.316;-1.348;2022-11-20T01:33:59;7.70;99.90
4687;DHT22;2357;47.316;-1.348;2022-11-20T01:36:27;7.70;99.90
4687;DHT22;2357;47.316;-1.348;2022-11-20T01:38:59;7.80;99.90
4687;DHT22;2357;47.316;-1.348;2022-11-20T01:41:27;7.80;99.90
4687;DHT22;2357;47.316;-1.348;2022-11-20T01:44:13;7.80;99.90
4687;DHT22;2357;47.316;-1.348;2022-11-20T01:46:47;7.70;99.90
4687;DHT22;2357;47.316;-1.348;2022-11-20T01:49:21;7.80;99.90
4687;DHT22;2357;47.316;-1.348;2022-11-20T01:51:52;7.70;99.90
4687;DHT22;2357;47.316;-1.348;2022-11-20T01:54:23;7.80;99.90
4687;DHT22;2357;47.316;-1.348;2022-11-20T01:56:51;7.80;99.90
4687;DHT22;2357;47.316;-1.348;2022-11-20T01:59:18;7.80;99.90
4687;DHT22;2357;47.316;-1.348;2022-11-20T02:01:45;7.90;99.90
4687;DHT22;2357;47.316;-1.348;2022-11-20T02:04:11;7.90;99.90
4687;DHT22;2357;47.316;-1.348;2022-11-20T02:06:58;7.90;99.90
4687;DHT22;2357;47.316;-1.348;2022-11-20T02:09:25;7.90;99.90
4687;DHT22;2357;47.316;-1.348;2022-11-20T02:11:51;7.90;99.90
4687;DHT22;2357;47.316;-1.348;2022-11-20T02:14:17;7.90;99.90
4687;DHT22;2357;47.316;-1.348;2022-11-20T02:16:46;8.00;99.90
4687;DHT22;2357;47.316;-1.348;2022-11-20T02:19:32;8.00;99.90
4687;DHT22;2357;47.316;-1.348;2022-11-20T02:24:29;8.00;99.90
4687;DHT22;2357;47.316;-1.348;2022-11-20T02:27:07;7.90;99.90
4687;DHT22;2357;47.316;-1.348;2022-11-20T02:29:37;7.90;99.90
4687;DHT22;2357;47.316;-1.348;2022-11-20T02:32:05;7.90;99.90
4687;DHT22;2357;47.316;-1.348;2022-11-20T02:34:31;7.90;99.90
4687;DHT22;2357;47.316;-1.348;2022-11-20T02:36:57;8.00;99.90
4687;DHT22;2357;47.316;-1.348;2022-11-20T02:39:25;7.90;99.90
4687;DHT22;2357;47.316;-1.348;2022-11-20T02:41:53;7.90;99.90
4687;DHT22;2357;47.316;-1.348;2022-11-20T02:44:19;7.80;99.90
4687;DHT22;2357;47.316;-1.348;2022-11-20T02:46:45;7.80;99.90
4687;DHT22;2357;47.316;-1.348;2022-11-20T02:49:11;7.90;99.90
4687;DHT22;2357;47.316;-1.348;2022-11-20T02:51:36;7.90;99.90
4687;DHT22;2357;47.316;-1.348;2022-11-20T02:54:03;7.90;99.90
4687;DHT22;2357;47.316;-1.348;2022-11-20T02:56:28;7.70;99.90
4687;DHT22;2357;47.316;-1.348;2022-11-20T02:58:54;7.90;99.90
4687;DHT22;2357;47.316;-1.348;2022-11-20T03:01:21;7.90;99.90
4687;DHT22;2357;47.316;-1.348;2022-11-20T03:03:46;7.90;99.90
4687;DHT22;2357;47.316;-1.348;2022-11-20T03:06:14;7.90;99.90
4687;DHT22;2357;47.316;-1.348;2022-11-20T03:08:40;7.90;99.90
4687;DHT22;2357;47.316;-1.348;2022-11-20T03:11:07;7.90;99.90
4687;DHT22;2357;47.316;-1.348;2022-11-20T03:13:34;7.80;99.90
4687;DHT22;2357;47.316;-1.348;2022-11-20T03:16:15;7.80;99.90
4687;DHT22;2357;47.316;-1.348;2022-11-20T03:18:42;7.90;99.90
4687;DHT22;2357;47.316;-1.348;2022-11-20T03:21:09;8.00;99.90
4687;DHT22;2357;47.316;-1.348;2022-11-20T03:23:35;8.00;99.90
4687;DHT22;2357;47.316;-1.348;2022-11-20T03:26:16;7.90;99.90
4687;DHT22;2357;47.316;-1.348;2022-11-20T03:28:46;7.90;99.90
4687;DHT22;2357;47.316;-1.348;2022-11-20T03:31:13;8.00;99.90
4687;DHT22;2357;47.316;-1.348;2022-11-20T03:33:40;8.00;99.90
4687;DHT22;2357;47.316;-1.348;2022-11-20T03:36:08;8.00;99.90
4687;DHT22;2357;47.316;-1.348;2022-11-20T03:38:34;8.00;99.90
4687;DHT22;2357;47.316;-1.348;2022-11-20T03:41:01;7.80;99.90
4687;DHT22;2357;47.316;-1.348;2022-11-20T03:43:27;7.80;99.90
4687;DHT22;2357;47.316;-1.348;2022-11-20T03:45:53;7.90;99.90
4687;DHT22;2357;47.316;-1.348;2022-11-20T03:48:19;8.00;99.90
4687;DHT22;2357;47.316;-1.348;2022-11-20T03:50:44;8.00;99.90
4687;DHT22;2357;47.316;-1.348;2022-11-20T03:53:16;8.10;99.90
4687;DHT22;2357;47.316;-1.348;2022-11-20T03:55:42;8.10;99.90
4687;DHT22;2357;47.316;-1.348;2022-11-20T03:58:08;8.20;99.90
4687;DHT22;2357;47.316;-1.348;2022-11-20T04:00:33;8.20;99.90
4687;DHT22;2357;47.316;-1.348;2022-11-20T04:03:00;8.20;99.90
4687;DHT22;2357;47.316;-1.348;2022-11-20T04:05:26;8.10;99.90
4687;DHT22;2357;47.316;-1.348;2022-11-20T04:07:52;8.20;99.90
4687;DHT22;2357;47.316;-1.348;2022-11-20T04:10:18;8.20;99.90
4687;DHT22;2357;47.316;-1.348;2022-11-20T04:12:43;8.20;99.90
4687;DHT22;2357;47.316;-1.348;2022-11-20T04:15:09;8.20;99.90
4687;DHT22;2357;47.316;-1.348;2022-11-20T04:17:35;8.20;99.90
4687;DHT22;2357;47.316;-1.348;2022-11-20T04:20:01;8.20;99.90
4687;DHT22;2357;47.316;-1.348;2022-11-20T04:22:27;8.20;99.90
4687;DHT22;2357;47.316;-1.348;2022-11-20T04:24:52;8.30;99.90
4687;DHT22;2357;47.316;-1.348;2022-11-20T04:27:18;8.30;99.90
4687;DHT22;2357;47.316;-1.348;2022-11-20T04:29:44;8.30;99.90
4687;DHT22;2357;47.316;-1.348;2022-11-20T04:32:09;8.30;99.90
4687;DHT22;2357;47.316;-1.348;2022-11-20T04:34:35;8.40;99.90
4687;DHT22;2357;47.316;-1.348;2022-11-20T04:37:01;8.40;99.90
4687;DHT22;2357;47.316;-1.348;2022-11-20T04:39:26;8.40;99.90
4687;DHT22;2357;47.316;-1.348;2022-11-20T04:41:52;8.30;99.90
4687;DHT22;2357;47.316;-1.348;2022-11-20T04:44:37;8.40;99.90
4687;DHT22;2357;47.316;-1.348;2022-11-20T04:47:03;8.40;99.90
4687;DHT22;2357;47.316;-1.348;2022-11-20T04:49:29;8.50;99.90
4687;DHT22;2357;47.316;-1.348;2022-11-20T04:51:54;8.50;99.90
4687;DHT22;2357;47.316;-1.348;2022-11-20T04:54:20;8.50;99.90
4687;DHT22;2357;47.316;-1.348;2022-11-20T04:56:47;8.60;99.90
4687;DHT22;2357;47.316;-1.348;2022-11-20T04:59:13;8.60;99.90
4687;DHT22;2357;47.316;-1.348;2022-11-20T05:01:39;8.60;99.90
4687;DHT22;2357;47.316;-1.348;2022-11-20T05:04:05;8.60;99.90
4687;DHT22;2357;47.316;-1.348;2022-11-20T05:06:31;8.70;99.90
4687;DHT22;2357;47.316;-1.348;2022-11-20T05:08:57;8.70;99.90
4687;DHT22;2357;47.316;-1.348;2022-11-20T05:11:23;8.70;99.90
4687;DHT22;2357;47.316;-1.348;2022-11-20T05:13:50;8.70;99.90
4687;DHT22;2357;47.316;-1.348;2022-11-20T05:16:21;8.70;99.90
4687;DHT22;2357;47.316;-1.348;2022-11-20T05:18:47;8.70;99.90
4687;DHT22;2357;47.316;-1.348;2022-11-20T05:21:14;8.70;99.90
4687;DHT22;2357;47.316;-1.348;2022-11-20T05:23:40;8.70;99.90
4687;DHT22;2357;47.316;-1.348;2022-11-20T05:26:07;8.70;99.90
4687;DHT22;2357;47.316;-1.348;2022-11-20T05:28:34;8.70;99.90
4687;DHT22;2357;47.316;-1.348;2022-11-20T05:31:06;8.70;99.90
4687;DHT22;2357;47.316;-1.348;2022-11-20T05:33:33;8.70;99.90
4687;DHT22;2357;47.316;-1.348;2022-11-20T05:35:59;8.70;99.90
4687;DHT22;2357;47.316;-1.348;2022-11-20T05:38:25;8.70;99.90
4687;DHT22;2357;47.316;-1.348;2022-11-20T05:40:50;8.70;99.90
4687;DHT22;2357;47.316;-1.348;2022-11-20T05:43:16;8.70;99.90
4687;DHT22;2357;47.316;-1.348;2022-11-20T05:45:41;8.70;99.90
4687;DHT22;2357;47.316;-1.348;2022-11-20T05:48:07;8.70;99.90
4687;DHT22;2357;47.316;-1.348;2022-11-20T05:50:32;8.70;99.90
4687;DHT22;2357;47.316;-1.348;2022-11-20T05:52:59;8.70;99.90
4687;DHT22;2357;47.316;-1.348;2022-11-20T05:55:26;8.70;99.90
4687;DHT22;2357;47.316;-1.348;2022-11-20T05:57:53;8.70;99.90
4687;DHT22;2357;47.316;-1.348;2022-11-20T06:00:19;8.70;99.90
4687;DHT22;2357;47.316;-1.348;2022-11-20T06:02:45;8.70;99.90
4687;DHT22;2357;47.316;-1.348;2022-11-20T06:05:10;8.70;99.90
4687;DHT22;2357;47.316;-1.348;2022-11-20T06:07:36;8.60;99.90
4687;DHT22;2357;47.316;-1.348;2022-11-20T06:10:02;8.60;99.90
4687;DHT22;2357;47.316;-1.348;2022-11-20T06:12:28;8.60;99.90
4687;DHT22;2357;47.316;-1.348;2022-11-20T06:14:53;8.60;99.90
4687;DHT22;2357;47.316;-1.348;2022-11-20T06:17:19;8.60;99.90
4687;DHT22;2357;47.316;-1.348;2022-11-20T06:19:44;8.60;99.90
4687;DHT22;2357;47.316;-1.348;2022-11-20T06:22:10;8.60;99.90
4687;DHT22;2357;47.316;-1.348;2022-11-20T06:24:36;8.60;99.90
4687;DHT22;2357;47.316;-1.348;2022-11-20T06:27:01;8.60;99.90
4687;DHT22;2357;47.316;-1.348;2022-11-20T06:29:27;8.60;99.90
4687;DHT22;2357;47.316;-1.348;2022-11-20T06:31:53;8.70;99.90
4687;DHT22;2357;47.316;-1.348;2022-11-20T06:34:18;8.70;99.90
4687;DHT22;2357;47.316;-1.348;2022-11-20T06:36:44;8.70;99.90
4687;DHT22;2357;47.316;-1.348;2022-11-20T06:39:10;8.70;99.90
4687;DHT22;2357;47.316;-1.348;2022-11-20T06:41:35;8.70;99.90
4687;DHT22;2357;47.316;-1.348;2022-11-20T06:44:01;8.70;99.90
4687;DHT22;2357;47.316;-1.348;2022-11-20T06:46:28;8.70;99.90
4687;DHT22;2357;47.316;-1.348;2022-11-20T06:48:54;8.70;99.90
4687;DHT22;2357;47.316;-1.348;2022-11-20T06:51:20;8.70;99.90
4687;DHT22;2357;47.316;-1.348;2022-11-20T06:53:46;8.70;99.90
4687;DHT22;2357;47.316;-1.348;2022-11-20T06:56:12;8.80;99.90
4687;DHT22;2357;47.316;-1.348;2022-11-20T06:58:39;8.80;99.90
4687;DHT22;2357;47.316;-1.348;2022-11-20T07:01:08;8.80;99.90
4687;DHT22;2357;47.316;-1.348;2022-11-20T07:03:34;8.80;99.90
4687;DHT22;2357;47.316;-1.348;2022-11-20T07:06:01;8.90;99.90
4687;DHT22;2357;47.316;-1.348;2022-11-20T07:08:26;8.90;99.90
4687;DHT22;2357;47.316;-1.348;2022-11-20T07:10:53;8.90;99.90
4687;DHT22;2357;47.316;-1.348;2022-11-20T07:13:22;8.90;99.90
4687;DHT22;2357;47.316;-1.348;2022-11-20T07:15:47;8.90;99.90
4687;DHT22;2357;47.316;-1.348;2022-11-20T07:18:13;8.90;99.90
4687;DHT22;2357;47.316;-1.348;2022-11-20T07:20:38;8.90;99.90
4687;DHT22;2357;47.316;-1.348;2022-11-20T07:23:04;8.90;99.90
4687;DHT22;2357;47.316;-1.348;2022-11-20T07:25:30;8.90;99.90
4687;DHT22;2357;47.316;-1.348;2022-11-20T07:27:59;8.90;99.90
4687;DHT22;2357;47.316;-1.348;2022-11-20T07:30:28;9.00;99.90
4687;DHT22;2357;47.316;-1.348;2022-11-20T07:32:55;9.00;99.90
4687;DHT22;2357;47.316;-1.348;2022-11-20T07:35:21;9.00;99.90
4687;DHT22;2357;47.316;-1.348;2022-11-20T07:37:48;9.00;99.90
4687;DHT22;2357;47.316;-1.348;2022-11-20T07:40:14;9.00;99.90
4687;DHT22;2357;47.316;-1.348;2022-11-20T07:42:50;9.00;99.90
4687;DHT22;2357;47.316;-1.348;2022-11-20T07:45:17;9.10;99.90
4687;DHT22;2357;47.316;-1.348;2022-11-20T07:47:42;9.10;99.90
4687;DHT22;2357;47.316;-1.348;2022-11-20T07:50:08;9.20;99.90
4687;DHT22;2357;47.316;-1.348;2022-11-20T07:52:34;9.20;99.90
4687;DHT22;2357;47.316;-1.348;2022-11-20T07:54:59;9.20;99.90
4687;DHT22;2357;47.316;-1.348;2022-11-20T07:57:25;9.20;99.90
4687;DHT22;2357;47.316;-1.348;2022-11-20T07:59:50;9.20;99.90
4687;DHT22;2357;47.316;-1.348;2022-11-20T08:02:16;9.30;99.90
4687;DHT22;2357;47.316;-1.348;2022-11-20T08:04:41;9.30;99.90
4687;DHT22;2357;47.316;-1.348;2022-11-20T08:07:07;9.30;99.90
4687;DHT22;2357;47.316;-1.348;2022-11-20T08:09:33;9.30;99.90
4687;DHT22;2357;47.316;-1.348;2022-11-20T08:11:58;9.30;99.90
4687;DHT22;2357;47.316;-1.348;2022-11-20T08:14:42;9.40;99.90
4687;DHT22;2357;47.316;-1.348;2022-11-20T08:17:08;9.40;99.90
4687;DHT22;2357;47.316;-1.348;2022-11-20T08:19:33;9.40;99.90
4687;DHT22;2357;47.316;-1.348;2022-11-20T08:21:59;9.40;99.90
4687;DHT22;2357;47.316;-1.348;2022-11-20T08:24:25;9.40;99.90
4687;DHT22;2357;47.316;-1.348;2022-11-20T08:26:51;9.40;99.90
4687;DHT22;2357;47.316;-1.348;2022-11-20T08:29:17;9.50;99.90
4687;DHT22;2357;47.316;-1.348;2022-11-20T08:31:43;9.50;99.90
4687;DHT22;2357;47.316;-1.348;2022-11-20T08:34:09;9.60;99.90
4687;DHT22;2357;47.316;-1.348;2022-11-20T08:36:35;9.70;99.90
4687;DHT22;2357;47.316;-1.348;2022-11-20T08:39:02;9.70;99.90
4687;DHT22;2357;47.316;-1.348;2022-11-20T08:41:28;9.80;99.90
4687;DHT22;2357;47.316;-1.348;2022-11-20T08:43:57;9.90;99.90
4687;DHT22;2357;47.316;-1.348;2022-11-20T08:46:27;9.90;99.90
4687;DHT22;2357;47.316;-1.348;2022-11-20T08:48:53;10.00;99.90
4687;DHT22;2357;47.316;-1.348;2022-11-20T08:51:19;10.00;99.90
4687;DHT22;2357;47.316;-1.348;2022-11-20T08:53:45;10.10;99.90
4687;DHT22;2357;47.316;-1.348;2022-11-20T08:56:11;10.10;99.90
4687;DHT22;2357;47.316;-1.348;2022-11-20T08:58:38;10.10;99.90
4687;DHT22;2357;47.316;-1.348;2022-11-20T09:01:04;10.10;99.90
4687;DHT22;2357;47.316;-1.348;2022-11-20T09:03:29;10.10;99.90
4687;DHT22;2357;47.316;-1.348;2022-11-20T09:05:59;10.20;99.90
4687;DHT22;2357;47.316;-1.348;2022-11-20T09:08:25;10.20;99.90
4687;DHT22;2357;47.316;-1.348;2022-11-20T09:10:52;10.30;99.90
4687;DHT22;2357;47.316;-1.348;2022-11-20T09:13:18;10.20;99.90
4687;DHT22;2357;47.316;-1.348;2022-11-20T09:15:43;10.20;99.90
4687;DHT22;2357;47.316;-1.348;2022-11-20T09:18:09;10.20;99.90
4687;DHT22;2357;47.316;-1.348;2022-11-20T09:20:35;10.20;99.90
4687;DHT22;2357;47.316;-1.348;2022-11-20T09:23:00;10.30;99.90
4687;DHT22;2357;47.316;-1.348;2022-11-20T09:25:26;10.30;99.90
4687;DHT22;2357;47.316;-1.348;2022-11-20T09:27:58;10.30;99.90
4687;DHT22;2357;47.316;-1.348;2022-11-20T09:30:24;10.30;99.90
4687;DHT22;2357;47.316;-1.348;2022-11-20T09:32:50;10.40;99.90
4687;DHT22;2357;47.316;-1.348;2022-11-20T09:35:16;10.50;99.90
4687;DHT22;2357;47.316;-1.348;2022-11-20T09:37:43;10.50;99.90
4687;DHT22;2357;47.316;-1.348;2022-11-20T09:40:20;10.60;99.90
4687;DHT22;2357;47.316;-1.348;2022-11-20T09:51:30;10.80;99.90
4687;DHT22;2357;47.316;-1.348;2022-11-20T09:54:10;10.90;99.90
4687;DHT22;2357;47.316;-1.348;2022-11-20T09:56:40;10.90;99.90
4687;DHT22;2357;47.316;-1.348;2022-11-20T09:59:10;11.00;99.90
4687;DHT22;2357;47.316;-1.348;2022-11-20T10:01:39;11.10;99.90
4687;DHT22;2357;47.316;-1.348;2022-11-20T10:04:16;11.20;99.90
4687;DHT22;2357;47.316;-1.348;2022-11-20T10:06:44;11.30;99.90
4687;DHT22;2357;47.316;-1.348;2022-11-20T10:11:43;11.50;99.90
4687;DHT22;2357;47.316;-1.348;2022-11-20T10:30:18;11.50;99.90
4687;DHT22;2357;47.316;-1.348;2022-11-20T10:36:00;11.50;99.90
4687;DHT22;2357;47.316;-1.348;2022-11-20T10:38:35;11.60;99.90
4687;DHT22;2357;47.316;-1.348;2022-11-20T10:41:03;11.70;99.90
4687;DHT22;2357;47.316;-1.348;2022-11-20T10:43:50;11.70;99.90
4687;DHT22;2357;47.316;-1.348;2022-11-20T10:46:20;11.80;99.90
4687;DHT22;2357;47.316;-1.348;2022-11-20T10:48:48;11.80;99.90
4687;DHT22;2357;47.316;-1.348;2022-11-20T10:51:37;11.90;99.90
4687;DHT22;2357;47.316;-1.348;2022-11-20T10:54:29;11.80;99.90
4687;DHT22;2357;47.316;-1.348;2022-11-20T10:57:05;11.90;99.90
4687;DHT22;2357;47.316;-1.348;2022-11-20T11:00:03;11.80;99.90
4687;DHT22;2357;47.316;-1.348;2022-11-20T11:02:39;11.90;99.90
4687;DHT22;2357;47.316;-1.348;2022-11-20T11:05:21;11.90;99.90
4687;DHT22;2357;47.316;-1.348;2022-11-20T11:07:51;12.00;99.90
4687;DHT22;2357;47.316;-1.348;2022-11-20T11:10:24;12.10;99.90
4687;DHT22;2357;47.316;-1.348;2022-11-20T11:12:51;12.10;99.90
4687;DHT22;2357;47.316;-1.348;2022-11-20T11:15:39;12.20;99.90
4687;DHT22;2357;47.316;-1.348;2022-11-20T11:18:09;12.20;99.90
4687;DHT22;2357;47.316;-1.348;2022-11-20T11:20:35;12.20;99.90
4687;DHT22;2357;47.316;-1.348;2022-11-20T11:23:01;12.30;99.90
4687;DHT22;2357;47.316;-1.348;2022-11-20T11:25:32;12.40;99.90
4687;DHT22;2357;47.316;-1.348;2022-11-20T11:28:02;12.40;99.90
4687;DHT22;2357;47.316;-1.348;2022-11-20T11:30:29;12.50;99.90
4687;DHT22;2357;47.316;-1.348;2022-11-20T11:33:29;12.50;99.90
4687;DHT22;2357;47.316;-1.348;2022-11-20T11:35:56;12.60;99.90
4687;DHT22;2357;47.316;-1.348;2022-11-20T11:38:43;12.70;99.90
4687;DHT22;2357;47.316;-1.348;2022-11-20T11:41:15;12.70;99.90
4687;DHT22;2357;47.316;-1.348;2022-11-20T11:43:56;12.70;99.90
4687;DHT22;2357;47.316;-1.348;2022-11-20T11:47:00;12.70;99.90
4687;DHT22;2357;47.316;-1.348;2022-11-20T11:49:26;12.80;99.90
4687;DHT22;2357;47.316;-1.348;2022-11-20T11:52:14;12.60;99.90
4687;DHT22;2357;47.316;-1.348;2022-11-20T11:54:52;12.60;99.90
4687;DHT22;2357;47.316;-1.348;2022-11-20T12:02:37;12.60;99.90
4687;DHT22;2357;47.316;-1.348;2022-11-20T12:08:04;12.70;99.90
4687;DHT22;2357;47.316;-1.348;2022-11-20T12:16:12;13.00;99.90
4687;DHT22;2357;47.316;-1.348;2022-11-20T12:18:39;13.10;99.90
4687;DHT22;2357;47.316;-1.348;2022-11-20T12:43:21;13.40;99.90
4687;DHT22;2357;47.316;-1.348;2022-11-20T12:46:23;13.50;99.90
4687;DHT22;2357;47.316;-1.348;2022-11-20T12:59:51;13.90;99.90
4687;DHT22;2357;47.316;-1.348;2022-11-20T13:08:02;14.90;99.90
4687;DHT22;2357;47.316;-1.348;2022-11-20T13:10:49;15.20;99.90
4687;DHT22;2357;47.316;-1.348;2022-11-20T13:13:33;15.90;99.90
4687;DHT22;2357;47.316;-1.348;2022-11-20T13:16:36;15.50;99.90
4687;DHT22;2357;47.316;-1.348;2022-11-20T13:19:04;16.40;99.90
4687;DHT22;2357;47.316;-1.348;2022-11-20T13:21:44;17.30;99.90
4687;DHT22;2357;47.316;-1.348;2022-11-20T13:27:32;18.40;99.90
4687;DHT22;2357;47.316;-1.348;2022-11-20T13:30:10;18.00;99.90
4687;DHT22;2357;47.316;-1.348;2022-11-20T13:32:57;18.40;99.90
4687;DHT22;2357;47.316;-1.348;2022-11-20T13:35:33;18.90;99.90
4687;DHT22;2357;47.316;-1.348;2022-11-20T13:38:12;19.10;99.90
4687;DHT22;2357;47.316;-1.348;2022-11-20T13:46:03;17.00;99.90
4687;DHT22;2357;47.316;-1.348;2022-11-20T13:48:49;17.00;99.90
4687;DHT22;2357;47.316;-1.348;2022-11-20T13:51:21;17.10;99.90
4687;DHT22;2357;47.316;-1.348;2022-11-20T14:01:54;15.80;99.90
4687;DHT22;2357;47.316;-1.348;2022-11-20T14:04:27;15.40;99.90
4687;DHT22;2357;47.316;-1.348;2022-11-20T14:06:54;15.00;99.90
4687;DHT22;2357;47.316;-1.348;2022-11-20T14:09:30;14.70;99.90
4687;DHT22;2357;47.316;-1.348;2022-11-20T14:11:57;14.30;99.90
4687;DHT22;2357;47.316;-1.348;2022-11-20T14:14:28;14.00;99.90
4687;DHT22;2357;47.316;-1.348;2022-11-20T14:17:47;14.00;99.90
4687;DHT22;2357;47.316;-1.348;2022-11-20T14:19:54;13.90;99.90
4687;DHT22;2357;47.316;-1.348;2022-11-20T14:22:25;13.90;99.90
4687;DHT22;2357;47.316;-1.348;2022-11-20T14:27:43;13.80;99.90
4687;DHT22;2357;47.316;-1.348;2022-11-20T14:30:26;13.80;99.90
4687;DHT22;2357;47.316;-1.348;2022-11-20T14:32:54;13.80;99.90
4687;DHT22;2357;47.316;-1.348;2022-11-20T14:35:29;13.70;99.90
4687;DHT22;2357;47.316;-1.348;2022-11-20T14:37:56;13.70;99.90
4687;DHT22;2357;47.316;-1.348;2022-11-20T14:42:48;13.90;99.90
4687;DHT22;2357;47.316;-1.348;2022-11-20T14:45:14;13.60;99.90
4687;DHT22;2357;47.316;-1.348;2022-11-20T14:47:40;13.60;99.90
4687;DHT22;2357;47.316;-1.348;2022-11-20T14:50:18;13.40;99.90
4687;DHT22;2357;47.316;-1.348;2022-11-20T14:52:58;13.40;99.90
4687;DHT22;2357;47.316;-1.348;2022-11-20T14:58:03;13.20;99.90
4687;DHT22;2357;47.316;-1.348;2022-11-20T15:00:31;13.20;99.90
4687;DHT22;2357;47.316;-1.348;2022-11-20T15:02:57;13.20;99.90
4687;DHT22;2357;47.316;-1.348;2022-11-20T15:05:45;13.30;99.90
4687;DHT22;2357;47.316;-1.348;2022-11-20T15:08:12;13.10;99.90
4687;DHT22;2357;47.316;-1.348;2022-11-20T15:10:44;13.10;99.90
4687;DHT22;2357;47.316;-1.348;2022-11-20T15:13:22;13.10;99.90
4687;DHT22;2357;47.316;-1.348;2022-11-20T15:15:54;13.00;99.90
4687;DHT22;2357;47.316;-1.348;2022-11-20T15:18:40;13.00;99.90
4687;DHT22;2357;47.316;-1.348;2022-11-20T15:21:17;13.00;99.90
4687;DHT22;2357;47.316;-1.348;2022-11-20T15:23:43;12.90;99.90
4687;DHT22;2357;47.316;-1.348;2022-11-20T15:26:10;12.80;99.90
4687;DHT22;2357;47.316;-1.348;2022-11-20T15:28:40;12.80;99.90
4687;DHT22;2357;47.316;-1.348;2022-11-20T15:31:06;12.70;99.90
4687;DHT22;2357;47.316;-1.348;2022-11-20T15:33:33;12.60;99.90
4687;DHT22;2357;47.316;-1.348;2022-11-20T15:35:59;12.60;99.90
4687;DHT22;2357;47.316;-1.348;2022-11-20T15:38:25;12.60;99.90
4687;DHT22;2357;47.316;-1.348;2022-11-20T15:40:51;12.50;99.90
4687;DHT22;2357;47.316;-1.348;2022-11-20T15:43:17;12.50;99.90
4687;DHT22;2357;47.316;-1.348;2022-11-20T15:45:45;12.50;99.90
4687;DHT22;2357;47.316;-1.348;2022-11-20T15:51:07;12.30;99.90
4687;DHT22;2357;47.316;-1.348;2022-11-20T15:53:38;12.40;99.90
4687;DHT22;2357;47.316;-1.348;2022-11-20T15:56:04;12.30;99.90
4687;DHT22;2357;47.316;-1.348;2022-11-20T15:58:30;12.30;99.90
4687;DHT22;2357;47.316;-1.348;2022-11-20T16:00:56;12.30;99.90
4687;DHT22;2357;47.316;-1.348;2022-11-20T16:03:21;12.20;99.90
4687;DHT22;2357;47.316;-1.348;2022-11-20T16:05:47;12.20;99.90
4687;DHT22;2357;47.316;-1.348;2022-11-20T16:08:13;12.10;99.90
4687;DHT22;2357;47.316;-1.348;2022-11-20T16:10:39;12.10;99.90
4687;DHT22;2357;47.316;-1.348;2022-11-20T16:13:11;12.10;99.90
4687;DHT22;2357;47.316;-1.348;2022-11-20T16:15:57;12.00;99.90
4687;DHT22;2357;47.316;-1.348;2022-11-20T16:18:24;11.90;99.90
4687;DHT22;2357;47.316;-1.348;2022-11-20T16:20:51;11.90;99.90
4687;DHT22;2357;47.316;-1.348;2022-11-20T16:23:18;11.80;99.90
4687;DHT22;2357;47.316;-1.348;2022-11-20T16:25:44;11.80;99.90
4687;DHT22;2357;47.316;-1.348;2022-11-20T16:28:11;11.70;99.90
4687;DHT22;2357;47.316;-1.348;2022-11-20T16:30:37;11.70;99.90
4687;DHT22;2357;47.316;-1.348;2022-11-20T16:33:03;11.60;99.90
4687;DHT22;2357;47.316;-1.348;2022-11-20T16:35:30;11.50;99.90
4687;DHT22;2357;47.316;-1.348;2022-11-20T16:37:57;11.50;99.90
4687;DHT22;2357;47.316;-1.348;2022-11-20T16:40:24;11.50;99.90
4687;DHT22;2357;47.316;-1.348;2022-11-20T16:42:50;11.50;99.90
4687;DHT22;2357;47.316;-1.348;2022-11-20T16:45:16;11.40;99.90
4687;DHT22;2357;47.316;-1.348;2022-11-20T16:47:42;11.30;99.90
4687;DHT22;2357;47.316;-1.348;2022-11-20T16:50:08;11.30;99.90
4687;DHT22;2357;47.316;-1.348;2022-11-20T16:52:34;11.30;99.90
4687;DHT22;2357;47.316;-1.348;2022-11-20T16:55:00;11.20;99.90
4687;DHT22;2357;47.316;-1.348;2022-11-20T16:57:29;11.20;99.90
4687;DHT22;2357;47.316;-1.348;2022-11-20T16:59:56;11.30;99.90
4687;DHT22;2357;47.316;-1.348;2022-11-20T17:02:22;11.30;99.90
4687;DHT22;2357;47.316;-1.348;2022-11-20T17:04:47;11.20;99.90
4687;DHT22;2357;47.316;-1.348;2022-11-20T17:07:13;11.20;99.90
4687;DHT22;2357;47.316;-1.348;2022-11-20T17:09:39;11.20;99.90
4687;DHT22;2357;47.316;-1.348;2022-11-20T17:12:05;11.20;99.90
4687;DHT22;2357;47.316;-1.348;2022-11-20T17:14:30;11.10;99.90
4687;DHT22;2357;47.316;-1.348;2022-11-20T17:16:56;11.10;99.90
4687;DHT22;2357;47.316;-1.348;2022-11-20T17:19:22;11.10;99.90
4687;DHT22;2357;47.316;-1.348;2022-11-20T17:21:47;11.10;99.90
4687;DHT22;2357;47.316;-1.348;2022-11-20T17:24:14;11.10;99.90
4687;DHT22;2357;47.316;-1.348;2022-11-20T17:26:43;11.20;99.90
4687;DHT22;2357;47.316;-1.348;2022-11-20T17:29:17;11.20;99.90
4687;DHT22;2357;47.316;-1.348;2022-11-20T17:31:43;11.20;99.90
4687;DHT22;2357;47.316;-1.348;2022-11-20T17:34:11;11.20;99.90
4687;DHT22;2357;47.316;-1.348;2022-11-20T17:36:37;11.20;99.90
4687;DHT22;2357;47.316;-1.348;2022-11-20T17:39:12;11.10;99.90
4687;DHT22;2357;47.316;-1.348;2022-11-20T17:41:38;11.20;99.90
4687;DHT22;2357;47.316;-1.348;2022-11-20T17:44:04;11.20;99.90
4687;DHT22;2357;47.316;-1.348;2022-11-20T17:46:31;11.20;99.90
4687;DHT22;2357;47.316;-1.348;2022-11-20T17:49:00;11.20;99.90
4687;DHT22;2357;47.316;-1.348;2022-11-20T17:51:31;11.20;99.90
4687;DHT22;2357;47.316;-1.348;2022-11-20T17:53:59;11.10;99.90
4687;DHT22;2357;47.316;-1.348;2022-11-20T17:56:25;11.10;99.90
4687;DHT22;2357;47.316;-1.348;2022-11-20T17:59:12;11.30;99.90